Time;durP1;ratioP1;P1;durP2;ratioP2;P2;SDS_P1;SDS_P2;PMS_P1;PMS_P2;Temp;Humidity;BMP_temperature;BMP_pressure;BME280_temperature;BME280_humidity;BME280_pressure;Samples;Min_cycle;Max_cycle;Signal;HPM_P1;HPM_P2
2022/07/21 00:00:29;;;;;;;9.35;8.57;;;25.60;58.00;;;;;;5052697;28;20237;-53
2022/07/21 00:02:55;;;;;;;10.10;8.85;;;25.60;58.00;;;;;;5052254;28;20217;-54
2022/07/21 00:05:21;;;;;;;9.93;9.02;;;25.50;57.90;;;;;;5051799;28;20298;-53
2022/07/21 00:07:46;;;;;;;9.50;8.80;;;25.60;58.00;;;;;;5052318;28;20250;-56
2022/07/21 00:10:12;;;;;;;9.68;8.80;;;25.50;57.90;;;;;;5052172;28;20645;-55
2022/07/21 00:12:38;;;;;;;9.27;8.48;;;25.60;58.00;;;;;;5051704;28;20159;-56
2022/07/21 00:15:04;;;;;;;9.15;8.40;;;25.50;57.90;;;;;;5052162;28;20175;-56
2022/07/21 00:17:30;;;;;;;9.63;8.82;;;25.60;58.00;;;;;;5052499;28;20262;-58
2022/07/21 00:19:55;;;;;;;9.80;8.93;;;25.50;57.90;;;;;;5051641;28;20193;-53
2022/07/21 00:22:21;;;;;;;9.25;8.45;;;25.60;58.10;;;;;;5052302;28;20173;-53
2022/07/21 00:24:46;;;;;;;9.77;8.98;;;25.50;58.00;;;;;;5051475;28;20209;-53
2022/07/21 00:27:12;;;;;;;10.10;9.20;;;25.50;58.00;;;;;;5051888;28;20250;-54
2022/07/21 00:29:37;;;;;;;8.48;7.85;;;25.50;58.00;;;;;;5051950;28;20633;-54
2022/07/21 00:32:05;;;;;;;8.52;7.82;;;25.50;58.00;;;;;;5051999;28;20175;-54
2022/07/21 00:34:31;;;;;;;9.35;8.38;;;25.50;58.10;;;;;;5056340;28;20198;-56
2022/07/21 00:36:57;;;;;;;9.07;8.27;;;25.50;58.00;;;;;;5056298;28;20641;-56
2022/07/21 00:39:22;;;;;;;8.95;8.18;;;25.50;58.00;;;;;;5055691;28;20731;-54
2022/07/21 00:41:48;;;;;;;9.40;8.60;;;25.50;58.10;;;;;;5056010;28;20171;-55
2022/07/21 00:44:23;;;;;;;8.98;8.18;;;25.50;58.10;;;;;;5055785;28;20514;-55
2022/07/21 00:46:49;;;;;;;8.50;7.80;;;25.50;58.10;;;;;;5055524;28;20178;-54
2022/07/21 00:49:15;;;;;;;9.30;8.45;;;25.50;58.10;;;;;;5056044;28;20521;-55
2022/07/21 00:51:40;;;;;;;9.25;8.50;;;25.50;58.10;;;;;;5055916;28;20171;-54
2022/07/21 00:54:06;;;;;;;9.82;8.20;;;25.40;58.00;;;;;;5055123;28;20215;-54
2022/07/21 00:56:31;;;;;;;9.00;8.20;;;25.50;58.10;;;;;;5056012;28;20172;-52
2022/07/21 00:58:57;;;;;;;8.35;7.75;;;25.50;58.10;;;;;;5055651;28;21172;-55
2022/07/21 01:01:22;;;;;;;8.68;7.97;;;25.50;58.80;;;;;;5054712;28;20652;-55
2022/07/21 01:03:48;;;;;;;9.10;8.40;;;25.50;58.20;;;;;;5055358;28;20190;-55
2022/07/21 01:06:14;;;;;;;8.98;8.27;;;25.50;58.20;;;;;;5055657;28;20289;-52
2022/07/21 01:08:39;;;;;;;8.85;8.15;;;25.50;58.20;;;;;;5054760;28;20167;-56
2022/07/21 01:11:05;;;;;;;9.23;8.43;;;25.50;58.20;;;;;;5055549;28;20178;-56
2022/07/21 01:13:31;;;;;;;8.90;8.10;;;25.40;58.10;;;;;;5055510;28;20175;-53
2022/07/21 01:15:56;;;;;;;8.80;8.10;;;25.40;58.10;;;;;;5053687;28;20178;-52
2022/07/21 01:18:22;;;;;;;8.35;7.75;;;25.50;58.10;;;;;;5055664;28;20171;-56
2022/07/21 01:20:54;;;;;;;8.70;7.90;;;25.50;58.20;;;;;;5055359;28;20175;-55
2022/07/21 01:23:20;;;;;;;8.63;7.85;;;25.40;58.10;;;;;;5053306;28;20183;-54
2022/07/21 01:25:48;;;;;;;8.40;7.70;;;25.40;58.20;;;;;;5055036;28;20191;-54
2022/07/21 01:28:13;;;;;;;8.80;8.07;;;25.40;58.10;;;;;;5052082;28;20212;-53
2022/07/21 01:30:39;;;;;;;8.60;7.85;;;25.40;58.10;;;;;;5055125;28;20518;-53
2022/07/21 01:33:04;;;;;;;8.57;7.88;;;25.50;58.80;;;;;;5055068;28;20640;-56
2022/07/21 01:35:30;;;;;;;9.35;8.55;;;25.40;58.10;;;;;;5054224;28;20221;-56
2022/07/21 01:37:55;;;;;;;8.60;7.82;;;25.40;58.10;;;;;;5054843;28;20175;-56
2022/07/21 01:43:05;;;;;;;9.10;8.30;;;25.40;58.10;;;;;;5053473;28;20186;-54
2022/07/21 01:45:31;;;;;;;8.30;7.60;;;25.40;58.10;;;;;;5053451;28;20191;-54
2022/07/21 01:47:56;;;;;;;7.47;6.78;;;25.40;58.20;;;;;;5054758;28;20700;-55
2022/07/21 01:50:26;;;;;;;8.10;7.50;;;25.40;58.10;;;;;;5054094;28;20243;-55
2022/07/21 01:52:52;;;;;;;8.20;7.50;;;25.40;58.10;;;;;;5054417;28;20254;-56
2022/07/21 01:55:18;;;;;;;8.05;7.35;;;25.40;58.20;;;;;;5054613;28;20194;-53
2022/07/21 01:57:43;;;;;;;8.48;7.68;;;25.40;58.20;;;;;;5054042;28;20163;-55
2022/07/21 02:00:10;;;;;;;8.18;7.38;;;25.40;58.20;;;;;;5054830;28;20232;-51
2022/07/21 02:02:36;;;;;;;8.20;7.50;;;25.40;58.20;;;;;;5054989;28;20255;-54
2022/07/21 02:05:01;;;;;;;8.00;7.40;;;25.40;58.20;;;;;;5053603;28;20286;-54
2022/07/21 02:07:26;;;;;;;8.10;7.40;;;25.40;58.20;;;;;;5054861;28;20171;-54
2022/07/21 02:09:52;;;;;;;8.57;7.88;;;25.40;58.20;;;;;;5054188;28;20182;-53
2022/07/21 02:12:17;;;;;;;8.25;7.50;;;25.40;58.20;;;;;;5054001;28;20167;-56
2022/07/21 02:14:43;;;;;;;8.57;7.85;;;25.40;58.20;;;;;;5054365;28;20530;-56
2022/07/21 02:17:08;;;;;;;7.80;7.00;;;25.40;58.20;;;;;;5054472;28;20638;-55
2022/07/21 02:19:34;;;;;;;7.72;7.10;;;25.40;58.20;;;;;;5053445;28;20652;-55
2022/07/21 02:21:59;;;;;;;7.32;6.80;;;25.40;58.20;;;;;;5053535;28;20182;-54
2022/07/21 02:24:25;;;;;;;7.82;7.22;;;25.40;58.20;;;;;;5053573;28;20175;-55
2022/07/21 02:26:51;;;;;;;7.30;6.70;;;25.40;58.30;;;;;;5053704;28;20171;-57
2022/07/21 02:29:16;;;;;;;7.43;6.85;;;25.40;58.20;;;;;;5054359;28;20178;-56
2022/07/21 02:31:42;;;;;;;7.50;6.85;;;25.40;58.30;;;;;;5053327;28;20167;-53
2022/07/21 02:34:07;;;;;;;7.70;7.10;;;25.40;58.30;;;;;;5053729;28;20175;-56
2022/07/21 02:36:33;;;;;;;7.72;7.03;;;25.40;58.30;;;;;;5051341;28;20164;-56
2022/07/21 02:38:59;;;;;;;7.43;6.82;;;25.40;58.30;;;;;;5053249;28;20198;-57
2022/07/21 02:41:24;;;;;;;7.25;6.65;;;25.40;58.30;;;;;;5053717;28;20633;-57
2022/07/21 02:43:50;;;;;;;7.45;6.88;;;25.40;58.30;;;;;;5053955;28;20175;-56
2022/07/21 02:46:15;;;;;;;7.18;6.63;;;25.30;58.20;;;;;;5053355;28;20198;-58
2022/07/21 02:48:41;;;;;;;7.47;6.78;;;25.30;58.30;;;;;;5053762;28;20171;-58
2022/07/21 02:51:06;;;;;;;7.13;6.63;;;25.40;58.30;;;;;;5053700;28;20629;-52
2022/07/21 02:53:32;;;;;;;7.38;6.70;;;25.30;58.30;;;;;;5052812;28;20241;-54
2022/07/21 02:55:57;;;;;;;7.10;6.50;;;25.40;58.40;;;;;;5053172;28;20175;-50
2022/07/21 02:58:24;;;;;;;7.30;6.70;;;25.40;58.40;;;;;;5053576;28;20574;-54
2022/07/21 03:00:58;;;;;;;7.53;6.93;;;25.40;58.40;;;;;;5052754;28;20179;-55
2022/07/21 03:03:25;;;;;;;6.60;6.10;;;25.30;58.30;;;;;;5053444;28;20556;-52
2022/07/21 03:05:50;;;;;;;7.10;6.50;;;25.40;58.40;;;;;;5053246;28;20206;-55
2022/07/21 03:08:16;;;;;;;7.65;7.07;;;25.30;58.30;;;;;;5052796;28;20171;-56
2022/07/21 03:10:42;;;;;;;7.05;6.55;;;25.30;58.30;;;;;;5053144;28;20178;-55
2022/07/21 03:13:07;;;;;;;7.35;6.78;;;25.30;58.30;;;;;;5053340;28;20190;-53
2022/07/21 03:15:33;;;;;;;7.43;6.82;;;25.40;58.40;;;;;;5050062;28;20205;-55
2022/07/21 03:17:59;;;;;;;6.90;6.40;;;25.30;58.30;;;;;;5052910;28;20249;-55
2022/07/21 03:20:25;;;;;;;7.22;6.72;;;25.30;58.30;;;;;;5053354;28;20633;-50
2022/07/21 03:22:51;;;;;;;7.28;6.72;;;25.30;58.30;;;;;;5052436;28;20518;-51
2022/07/21 03:25:16;;;;;;;6.80;6.30;;;25.30;58.40;;;;;;5053236;28;20261;-55
2022/07/21 03:27:43;;;;;;;6.72;6.22;;;25.30;58.30;;;;;;5052640;28;20258;-55
2022/07/21 03:30:09;;;;;;;7.65;7.05;;;25.30;58.30;;;;;;5052742;28;20179;-51
2022/07/21 03:32:34;;;;;;;7.10;6.60;;;25.30;58.40;;;;;;5052924;28;20660;-57
2022/07/21 03:35:00;;;;;;;7.00;6.50;;;25.30;58.40;;;;;;5052042;28;20171;-56
2022/07/21 03:37:25;;;;;;;7.25;6.65;;;25.30;58.30;;;;;;5052895;28;20571;-57
2022/07/21 03:39:51;;;;;;;6.75;6.22;;;25.30;58.40;;;;;;5052464;28;20175;-55
2022/07/21 03:42:17;;;;;;;7.93;6.63;;;25.30;58.40;;;;;;5052094;28;20233;-55
2022/07/21 03:44:42;;;;;;;7.28;6.57;;;25.30;58.30;;;;;;5052215;28;20191;-57
2022/07/21 03:47:08;;;;;;;7.13;6.45;;;25.30;58.30;;;;;;5052610;28;20182;-55
2022/07/21 03:49:33;;;;;;;7.00;6.50;;;25.30;58.30;;;;;;5049365;28;20183;-55
2022/07/21 03:51:59;;;;;;;6.43;5.93;;;25.30;58.40;;;;;;5052624;28;20175;-54
2022/07/21 03:54:24;;;;;;;7.35;6.72;;;25.30;58.40;;;;;;5052396;28;20221;-56
2022/07/21 03:56:50;;;;;;;6.97;6.43;;;25.20;58.30;;;;;;5051742;28;20175;-54
2022/07/21 03:59:15;;;;;;;6.95;6.35;;;25.20;58.30;;;;;;5052614;28;20251;-56
2022/07/21 04:01:41;;;;;;;6.97;6.40;;;25.30;58.40;;;;;;5052347;28;20170;-57
2022/07/21 04:04:06;;;;;;;6.68;6.18;;;25.30;58.40;;;;;;5051635;28;20308;-55
2022/07/21 04:06:32;;;;;;;7.18;6.57;;;25.20;58.20;;;;;;5052084;28;20671;-56
2022/07/21 04:08:57;;;;;;;7.20;6.60;;;25.20;58.30;;;;;;5051715;28;20168;-56
2022/07/21 04:11:23;;;;;;;6.65;6.07;;;25.30;58.40;;;;;;5051782;28;20178;-57
2022/07/21 04:13:48;;;;;;;7.30;6.70;;;25.20;58.40;;;;;;5051935;28;20179;-56
2022/07/21 04:16:14;;;;;;;6.43;5.85;;;25.20;58.40;;;;;;5049680;28;20171;-55
2022/07/21 04:18:39;;;;;;;6.72;6.18;;;25.20;58.30;;;;;;5051366;28;20163;-56
2022/07/21 04:21:05;;;;;;;7.15;6.65;;;25.20;58.30;;;;;;5051887;28;20273;-56
2022/07/21 04:23:31;;;;;;;7.13;6.53;;;25.20;58.30;;;;;;5052356;28;20195;-56
2022/07/21 04:25:57;;;;;;;6.88;6.38;;;25.20;58.30;;;;;;5051141;28;20622;-54
2022/07/21 04:28:22;;;;;;;7.13;6.53;;;25.20;58.30;;;;;;5052259;28;20203;-56
2022/07/21 04:30:48;;;;;;;6.65;6.00;;;25.20;58.30;;;;;;5051929;28;20703;-53
2022/07/21 04:33:13;;;;;;;7.43;6.82;;;25.20;58.30;;;;;;5051347;28;20233;-57
2022/07/21 04:35:39;;;;;;;6.90;6.40;;;25.20;58.40;;;;;;5052065;28;20183;-58
2022/07/21 04:38:04;;;;;;;6.78;6.28;;;25.20;58.40;;;;;;5051473;28;20171;-55
2022/07/21 04:40:30;;;;;;;6.88;6.38;;;25.20;58.40;;;;;;5051712;28;20179;-55
2022/07/21 04:42:55;;;;;;;7.70;7.00;;;25.20;58.40;;;;;;5051982;28;20220;-57
2022/07/21 04:45:21;;;;;;;7.15;6.55;;;25.20;58.40;;;;;;5051662;28;20210;-54
2022/07/21 04:47:51;;;;;;;7.30;6.60;;;25.20;58.40;;;;;;5051845;28;20163;-58
2022/07/21 04:50:17;;;;;;;7.30;6.70;;;25.20;58.40;;;;;;5049806;28;20171;-56
2022/07/21 04:52:43;;;;;;;7.53;6.82;;;25.20;58.40;;;;;;5051268;28;20176;-55
2022/07/21 04:55:08;;;;;;;7.53;6.93;;;25.20;58.40;;;;;;5051711;28;20230;-56
2022/07/21 04:57:41;;;;;;;7.15;6.55;;;25.20;58.40;;;;;;5049173;28;20172;-52
2022/07/21 05:00:09;;;;;;;6.88;6.38;;;25.20;58.30;;;;;;5051232;28;20175;-52
2022/07/21 05:02:34;;;;;;;7.40;6.80;;;25.20;58.40;;;;;;5049447;28;20212;-55
2022/07/21 05:05:01;;;;;;;6.47;5.97;;;25.20;58.40;;;;;;5049214;28;20555;-56
2022/07/21 05:07:27;;;;;;;7.03;6.45;;;25.20;58.40;;;;;;5051260;28;20171;-56
2022/07/21 05:09:52;;;;;;;6.82;6.32;;;25.20;58.40;;;;;;5051687;28;20194;-58
2022/07/21 05:12:18;;;;;;;7.80;7.10;;;25.20;58.40;;;;;;5051829;28;20163;-56
2022/07/21 05:14:43;;;;;;;7.22;6.63;;;25.20;58.40;;;;;;5050879;28;20171;-58
2022/07/21 05:17:09;;;;;;;6.60;6.10;;;25.20;58.40;;;;;;5051796;28;20210;-54
2022/07/21 05:19:34;;;;;;;6.60;6.13;;;25.20;58.40;;;;;;5054472;28;20595;-54
2022/07/21 05:22:00;;;;;;;7.35;6.80;;;25.20;58.40;;;;;;5054445;28;20629;-53
2022/07/21 05:24:25;;;;;;;7.15;6.55;;;25.20;58.40;;;;;;5055248;28;20669;-48
2022/07/21 05:26:51;;;;;;;7.35;6.75;;;25.10;58.30;;;;;;5055044;28;20270;-54
2022/07/21 05:29:16;;;;;;;7.22;6.63;;;25.20;58.40;;;;;;5054552;28;20273;-49
2022/07/21 05:31:42;;;;;;;6.78;6.28;;;25.20;58.40;;;;;;5055109;28;20262;-54
2022/07/21 05:34:07;;;;;;;7.05;6.47;;;25.20;58.40;;;;;;5055006;28;20170;-55
2022/07/21 05:36:33;;;;;;;7.60;6.90;;;25.20;58.40;;;;;;5054911;28;20210;-55
2022/07/21 05:38:58;;;;;;;7.32;6.63;;;25.20;58.40;;;;;;5054922;28;20182;-52
2022/07/21 05:41:24;;;;;;;7.13;6.63;;;25.20;58.40;;;;;;5054573;28;20171;-55
2022/07/21 05:43:49;;;;;;;7.53;6.85;;;25.20;58.40;;;;;;5054554;28;20167;-58
2022/07/21 05:46:15;;;;;;;7.40;6.80;;;25.20;58.40;;;;;;5054779;28;20233;-53
2022/07/21 05:48:40;;;;;;;7.63;6.97;;;25.10;58.30;;;;;;5054233;28;20528;-57
2022/07/21 05:51:06;;;;;;;7.30;6.70;;;25.10;58.30;;;;;;5054261;28;20570;-56
2022/07/21 05:53:32;;;;;;;7.10;6.50;;;25.20;58.40;;;;;;5054504;28;20677;-57
2022/07/21 05:55:57;;;;;;;7.15;6.45;;;25.20;58.40;;;;;;5054224;28;20171;-53
2022/07/21 05:58:24;;;;;;;7.63;7.00;;;25.20;58.30;;;;;;5054749;28;20179;-56
2022/07/21 06:01:07;;;;;;;7.38;6.78;;;25.20;58.40;;;;;;5054354;28;20265;-56
2022/07/21 06:03:36;;;;;;;7.22;6.72;;;25.10;58.30;;;;;;5054133;28;20175;-57
2022/07/21 06:06:02;;;;;;;7.43;6.82;;;25.10;58.40;;;;;;5054295;28;20207;-56
2022/07/21 06:08:28;;;;;;;7.72;7.10;;;25.10;58.40;;;;;;5054718;28;20186;-56
2022/07/21 06:10:53;;;;;;;7.47;6.97;;;25.10;58.60;;;;;;5053506;28;20658;-59
2022/07/21 06:13:19;;;;;;;8.80;8.00;;;25.10;58.40;;;;;;5054353;28;20505;-58
2022/07/21 06:15:44;;;;;;;9.57;8.70;;;25.10;58.50;;;;;;5054181;28;20706;-58
2022/07/21 06:18:10;;;;;;;10.18;9.32;;;25.10;58.60;;;;;;5053635;28;20175;-57
2022/07/21 06:20:35;;;;;;;9.82;8.93;;;25.10;58.60;;;;;;5054418;28;20167;-56
2022/07/21 06:23:01;;;;;;;9.88;9.02;;;25.10;58.60;;;;;;5053687;28;20174;-55
2022/07/21 06:25:26;;;;;;;10.13;9.13;;;25.10;58.60;;;;;;5053461;28;20210;-54
2022/07/21 06:27:52;;;;;;;10.52;9.55;;;25.20;58.70;;;;;;5053931;28;20217;-54
2022/07/21 06:30:17;;;;;;;10.30;9.40;;;25.10;58.60;;;;;;5053674;28;20170;-68
2022/07/21 06:32:43;;;;;;;9.32;8.55;;;25.10;58.80;;;;;;5053486;28;20166;-67
2022/07/21 06:35:08;;;;;;;13.43;10.80;;;25.10;58.80;;;;;;5054202;28;20244;-68
2022/07/21 06:37:34;;;;;;;11.77;10.30;;;25.10;58.80;;;;;;5054059;28;20254;-67
2022/07/21 06:40:00;;;;;;;12.00;10.75;;;25.10;58.90;;;;;;5054064;28;20179;-67
2022/07/21 06:42:25;;;;;;;10.90;9.88;;;25.20;59.10;;;;;;5054226;28;20170;-65
2022/07/21 06:44:51;;;;;;;10.93;9.85;;;25.20;58.80;;;;;;5052773;28;20341;-65
2022/07/21 06:47:16;;;;;;;10.45;9.45;;;25.20;58.80;;;;;;5053943;28;20178;-65
2022/07/21 06:49:42;;;;;;;11.07;9.98;;;25.30;59.00;;;;;;5053744;28;20202;-65
2022/07/21 06:52:07;;;;;;;10.82;9.82;;;25.30;58.90;;;;;;5053031;28;20250;-64
2022/07/21 06:54:33;;;;;;;10.93;9.48;;;25.30;58.90;;;;;;5053574;28;20268;-65
2022/07/21 06:56:58;;;;;;;10.95;9.95;;;25.40;59.00;;;;;;5053355;28;20193;-66
2022/07/21 06:59:24;;;;;;;10.00;9.18;;;25.40;58.90;;;;;;5052668;28;20667;-65
2022/07/21 07:01:49;;;;;;;12.00;10.80;;;25.40;58.90;;;;;;5053291;28;20254;-66
2022/07/21 07:04:15;;;;;;;11.82;10.63;;;25.40;58.80;;;;;;5053634;28;20262;-66
2022/07/21 07:06:40;;;;;;;12.73;11.55;;;25.40;58.90;;;;;;5052538;28;20201;-67
2022/07/21 07:09:06;;;;;;;12.40;11.07;;;25.40;58.90;;;;;;5053271;28;20167;-67
2022/07/21 07:11:34;;;;;;;12.15;11.15;;;25.40;58.80;;;;;;5053257;28;20179;-66
2022/07/21 07:13:59;;;;;;;12.63;11.50;;;25.40;58.80;;;;;;5052273;28;20554;-65
2022/07/21 07:16:25;;;;;;;12.27;11.18;;;25.40;58.80;;;;;;5053250;28;20178;-66
2022/07/21 07:18:50;;;;;;;12.82;11.63;;;25.40;58.70;;;;;;5053625;28;20183;-65
2022/07/21 07:21:16;;;;;;;12.45;11.27;;;25.50;58.70;;;;;;5052866;28;20171;-65
2022/07/21 07:23:42;;;;;;;12.10;10.45;;;25.40;58.70;;;;;;5053445;28;20527;-65
2022/07/21 07:26:08;;;;;;;13.70;12.50;;;25.40;58.70;;;;;;5053424;28;20289;-65
2022/07/21 07:28:33;;;;;;;14.02;12.75;;;25.40;58.70;;;;;;5035035;28;20317;-65
2022/07/21 07:30:59;;;;;;;13.07;11.88;;;25.40;58.60;;;;;;5053497;28;20175;-65
2022/07/21 07:33:25;;;;;;;14.05;12.75;;;25.40;58.60;;;;;;5053267;28;20518;-66
2022/07/21 07:35:51;;;;;;;13.45;12.27;;;25.40;58.60;;;;;;5052561;28;20179;-66
2022/07/21 07:38:17;;;;;;;13.13;12.02;;;25.30;58.60;;;;;;5053394;28;20182;-66
2022/07/21 07:40:42;;;;;;;12.55;11.48;;;25.40;58.60;;;;;;5053061;28;20555;-65
2022/07/21 07:43:08;;;;;;;13.52;12.35;;;25.30;58.50;;;;;;5051704;28;20170;-65
2022/07/21 07:45:35;;;;;;;14.30;13.07;;;25.30;58.40;;;;;;5053350;28;20214;-65
2022/07/21 07:48:00;;;;;;;13.35;12.20;;;25.30;58.40;;;;;;5052402;28;20178;-63
2022/07/21 07:50:26;;;;;;;13.43;12.32;;;25.30;58.80;;;;;;5053135;28;20167;-63
2022/07/21 07:52:51;;;;;;;13.93;12.82;;;25.30;58.40;;;;;;5052963;28;20179;-63
2022/07/21 07:55:17;;;;;;;14.05;12.65;;;25.20;58.40;;;;;;5052151;28;20231;-63
2022/07/21 07:57:43;;;;;;;13.73;12.50;;;25.20;58.30;;;;;;5052801;28;20502;-63
2022/07/21 08:00:11;;;;;;;14.18;12.48;;;25.20;58.40;;;;;;5053088;28;20175;-63
2022/07/21 08:02:36;;;;;;;13.88;12.68;;;25.20;58.30;;;;;;5052218;28;20646;-64
2022/07/21 08:05:02;;;;;;;13.63;12.43;;;25.20;58.30;;;;;;5052791;28;20233;-64
2022/07/21 08:07:28;;;;;;;14.63;13.23;;;25.30;58.30;;;;;;5053153;28;20265;-65
2022/07/21 08:09:53;;;;;;;15.40;13.18;;;25.20;58.30;;;;;;5051967;28;20258;-64
2022/07/21 08:12:19;;;;;;;13.57;12.38;;;25.20;58.20;;;;;;5052670;28;20264;-64
2022/07/21 08:14:44;;;;;;;13.07;11.77;;;25.20;58.20;;;;;;5052821;28;20174;-64
2022/07/21 08:17:10;;;;;;;13.27;12.18;;;25.30;58.90;;;;;;5052148;28;20171;-63
2022/07/21 08:19:35;;;;;;;13.98;12.57;;;25.20;58.20;;;;;;5053336;28;20178;-64
2022/07/21 08:22:01;;;;;;;14.23;12.93;;;25.20;58.20;;;;;;5052521;28;20170;-64
2022/07/21 08:24:27;;;;;;;12.70;11.68;;;25.20;58.20;;;;;;5051925;28;20182;-63
2022/07/21 08:26:52;;;;;;;14.93;13.07;;;25.20;58.20;;;;;;5052627;28;20170;-63
2022/07/21 08:29:18;;;;;;;14.32;12.88;;;25.20;58.20;;;;;;5052524;28;20656;-64
2022/07/21 08:31:43;;;;;;;13.60;12.27;;;25.30;58.30;;;;;;5051874;28;20229;-64
2022/07/21 08:34:09;;;;;;;14.38;13.05;;;25.20;58.30;;;;;;5052571;28;20174;-64
2022/07/21 08:36:34;;;;;;;13.80;12.50;;;25.20;58.30;;;;;;5052632;28;20268;-63
2022/07/21 08:39:00;;;;;;;13.77;12.57;;;25.20;58.20;;;;;;5051672;28;20229;-64
2022/07/21 08:41:25;;;;;;;13.35;12.20;;;25.20;58.30;;;;;;5052753;28;20170;-63
2022/07/21 08:43:51;;;;;;;13.95;12.55;;;25.20;58.20;;;;;;5052498;28;20603;-63
2022/07/21 08:46:17;;;;;;;13.52;12.32;;;25.20;58.30;;;;;;5051819;28;20264;-63
2022/07/21 08:48:43;;;;;;;14.25;12.95;;;25.20;58.20;;;;;;5052329;28;20183;-63
2022/07/21 08:51:09;;;;;;;13.48;12.23;;;25.30;58.20;;;;;;5051699;28;20183;-63
2022/07/21 08:53:34;;;;;;;13.57;12.25;;;25.20;58.20;;;;;;5035672;28;20258;-63
2022/07/21 08:56:00;;;;;;;13.75;12.43;;;25.20;58.10;;;;;;5056261;28;20179;-63
2022/07/21 08:58:25;;;;;;;13.55;12.30;;;25.30;58.10;;;;;;5055385;28;20179;-64
2022/07/21 09:00:51;;;;;;;13.73;12.43;;;25.30;58.10;;;;;;5056286;28;20175;-63
2022/07/21 09:03:21;;;;;;;12.95;11.75;;;25.30;58.10;;;;;;5056238;28;20633;-66
2022/07/21 09:06:02;;;;;;;13.25;12.07;;;25.20;58.10;;;;;;5055207;28;20211;-66
2022/07/21 09:08:47;;;;;;;12.57;11.50;;;25.20;58.10;;;;;;5056082;28;20716;-66
2022/07/21 09:11:21;;;;;;;13.95;12.27;;;25.20;58.20;;;;;;5056249;28;20171;-66
2022/07/21 09:13:51;;;;;;;12.73;11.48;;;25.20;58.20;;;;;;5055260;28;20175;-66
2022/07/21 09:16:35;;;;;;;13.15;11.95;;;25.10;58.30;;;;;;5055912;28;20613;-66
2022/07/21 09:19:01;;;;;;;12.57;11.48;;;25.10;58.30;;;;;;5055587;28;20175;-66
2022/07/21 09:21:26;;;;;;;12.77;11.57;;;25.10;58.30;;;;;;5055589;28;20699;-66
2022/07/21 09:23:52;;;;;;;13.07;11.88;;;25.10;58.30;;;;;;5055764;28;20191;-66
2022/07/21 09:26:17;;;;;;;12.60;11.40;;;25.10;58.30;;;;;;5055222;28;20645;-65
2022/07/21 09:28:43;;;;;;;12.25;11.13;;;25.10;58.40;;;;;;5055741;28;20701;-65
2022/07/21 09:31:10;;;;;;;13.40;12.02;;;25.10;58.40;;;;;;5055660;28;20673;-65
2022/07/21 09:33:43;;;;;;;13.30;12.00;;;25.10;58.40;;;;;;5055073;28;20172;-66
2022/07/21 09:36:13;;;;;;;12.10;10.98;;;25.10;58.40;;;;;;5055692;28;20178;-66
2022/07/21 09:38:50;;;;;;;12.98;11.32;;;25.10;58.40;;;;;;5055270;28;20657;-66
2022/07/21 09:41:25;;;;;;;12.77;11.57;;;25.00;58.40;;;;;;5054763;28;20183;-66
2022/07/21 09:43:52;;;;;;;12.82;11.57;;;25.00;58.50;;;;;;5055316;28;20170;-66
2022/07/21 09:46:18;;;;;;;12.07;11.00;;;25.00;58.50;;;;;;5055233;28;20676;-65
2022/07/21 09:48:46;;;;;;;12.95;11.65;;;25.00;58.50;;;;;;5054479;28;20175;-65
2022/07/21 09:51:18;;;;;;;12.43;11.32;;;25.00;58.50;;;;;;5055343;28;20186;-64
2022/07/21 09:54:10;;;;;;;11.48;10.48;;;25.00;58.50;;;;;;5055035;28;20251;-64
2022/07/21 09:56:37;;;;;;;10.98;10.07;;;25.00;58.50;;;;;;5053811;28;20186;-62
2022/07/21 09:59:04;;;;;;;11.70;10.60;;;25.00;58.50;;;;;;5055385;28;20182;-62
2022/07/21 10:01:29;;;;;;;10.73;9.73;;;25.00;58.50;;;;;;5054617;28;20178;-63
2022/07/21 10:03:56;;;;;;;10.93;9.82;;;25.00;58.60;;;;;;5055027;28;20172;-63
2022/07/21 10:06:27;;;;;;;11.02;10.02;;;25.00;58.60;;;;;;5053880;28;20722;-64
2022/07/21 10:08:53;;;;;;;9.60;8.80;;;25.00;58.60;;;;;;5054039;28;20178;-64
2022/07/21 10:11:18;;;;;;;9.93;9.13;;;25.00;58.60;;;;;;5055126;28;20179;-63
2022/07/21 10:13:44;;;;;;;9.55;8.75;;;25.00;58.70;;;;;;5054640;28;20638;-63
2022/07/21 10:16:11;;;;;;;9.30;8.43;;;24.90;58.70;;;;;;5054266;28;20175;-63
2022/07/21 10:19:03;;;;;;;10.45;9.55;;;24.90;58.70;;;;;;5054958;28;20195;-63
2022/07/21 10:21:37;;;;;;;8.60;7.70;;;25.00;58.70;;;;;;5054886;28;20709;-65
2022/07/21 10:24:04;;;;;;;8.38;7.57;;;25.00;58.80;;;;;;5054117;28;20183;-64
2022/07/21 10:26:30;;;;;;;8.52;7.82;;;24.90;58.80;;;;;;5053627;28;20221;-65
2022/07/21 10:28:55;;;;;;;7.82;7.13;;;25.00;58.80;;;;;;5053237;28;20179;-65
2022/07/21 10:31:27;;;;;;;7.65;6.70;;;24.90;58.80;;;;;;5053750;28;20178;-63
2022/07/21 10:33:53;;;;;;;9.13;8.20;;;24.90;58.90;;;;;;5054395;28;20186;-64
2022/07/21 10:36:38;;;;;;;8.07;7.38;;;24.90;58.80;;;;;;5054355;28;20712;-65
2022/07/21 10:39:10;;;;;;;7.15;6.45;;;24.90;58.90;;;;;;5054644;28;20186;-62
2022/07/21 10:41:39;;;;;;;7.07;6.57;;;25.00;58.80;;;;;;5054408;28;20540;-62
2022/07/21 10:44:27;;;;;;;7.82;6.57;;;25.00;58.80;;;;;;5053704;28;20175;-64
2022/07/21 10:47:11;;;;;;;8.30;6.22;;;25.00;59.00;;;;;;5054129;28;20244;-61
2022/07/21 10:49:44;;;;;;;6.60;6.00;;;25.00;59.10;;;;;;5055372;28;20194;-63
2022/07/21 10:52:39;;;;;;;7.10;6.40;;;25.00;59.10;;;;;;5053437;28;20179;-64
2022/07/21 10:55:10;;;;;;;6.90;6.18;;;25.00;59.30;;;;;;5053774;28;20624;-62
2022/07/21 10:57:42;;;;;;;7.32;6.50;;;25.00;59.50;;;;;;5054099;28;20194;-62
2022/07/21 11:00:21;;;;;;;7.38;6.18;;;25.00;59.30;;;;;;5053989;28;20174;-63
2022/07/21 11:02:58;;;;;;;6.75;6.15;;;25.00;59.20;;;;;;5053858;28;20634;-62
2022/07/21 11:05:24;;;;;;;6.57;5.97;;;25.00;59.10;;;;;;5053157;28;20214;-63
2022/07/21 11:08:08;;;;;;;7.10;6.50;;;25.00;59.10;;;;;;5053729;28;20312;-63
2022/07/21 11:10:55;;;;;;;6.38;5.85;;;25.00;59.10;;;;;;5053996;28;20175;-63
2022/07/21 11:13:25;;;;;;;6.45;5.70;;;25.00;59.00;;;;;;5052474;28;20187;-63
2022/07/21 11:15:51;;;;;;;5.80;5.30;;;25.00;59.10;;;;;;5053726;28;20202;-64
2022/07/21 11:18:17;;;;;;;7.18;6.45;;;25.00;60.00;;;;;;5053568;28;20202;-63
2022/07/21 11:20:43;;;;;;;8.05;5.97;;;25.00;59.30;;;;;;5052568;28;20624;-64
2022/07/21 11:23:09;;;;;;;5.85;4.85;;;25.00;59.30;;;;;;5053521;28;20195;-65
2022/07/21 11:25:34;;;;;;;7.10;5.75;;;25.00;59.60;;;;;;5053411;28;20695;-67
2022/07/21 11:28:00;;;;;;;7.75;5.38;;;25.00;59.60;;;;;;5051839;28;20182;-64
2022/07/21 11:30:25;;;;;;;6.82;5.50;;;25.00;59.50;;;;;;5052217;28;20183;-66
2022/07/21 11:32:51;;;;;;;6.65;5.85;;;25.00;59.60;;;;;;5052137;28;20179;-68
2022/07/21 11:35:17;;;;;;;6.78;5.63;;;25.00;59.60;;;;;;5043420;28;20706;-68
2022/07/21 11:37:44;;;;;;;8.13;5.03;;;25.00;59.50;;;;;;5052713;28;20627;-66
2022/07/21 11:40:18;;;;;;;6.40;4.93;;;25.10;59.60;;;;;;5052171;28;20290;-66
2022/07/21 11:42:45;;;;;;;5.38;4.88;;;25.10;59.60;;;;;;5052702;28;20210;-65
2022/07/21 11:45:11;;;;;;;4.80;4.32;;;25.20;59.60;;;;;;5052932;28;20218;-67
2022/07/21 11:47:36;;;;;;;5.32;4.47;;;25.10;59.60;;;;;;5052331;28;20171;-63
2022/07/21 11:50:04;;;;;;;5.68;4.38;;;25.10;59.50;;;;;;5052430;28;20545;-63
2022/07/21 11:52:31;;;;;;;4.43;3.90;;;25.20;59.60;;;;;;5052727;28;20175;-62
2022/07/21 11:54:57;;;;;;;4.32;3.95;;;25.20;59.50;;;;;;5051427;28;20546;-62
2022/07/21 11:57:24;;;;;;;6.93;3.92;;;25.20;59.50;;;;;;5052382;28;20224;-63
2022/07/21 11:59:50;;;;;;;6.22;3.78;;;25.20;59.50;;;;;;5052256;28;20634;-65
2022/07/21 12:02:17;;;;;;;3.60;3.30;;;25.30;59.60;;;;;;5051826;28;20171;-64
2022/07/21 12:04:48;;;;;;;4.28;3.72;;;25.30;59.50;;;;;;5052035;28;20224;-63
2022/07/21 12:07:19;;;;;;;3.85;3.40;;;25.40;59.50;;;;;;5052387;28;20705;-64
2022/07/21 12:09:45;;;;;;;4.85;3.90;;;25.40;59.50;;;;;;5033686;28;20228;-65
2022/07/21 12:12:11;;;;;;;3.80;3.40;;;25.30;59.40;;;;;;5052555;28;20257;-64
2022/07/21 12:14:43;;;;;;;3.53;3.22;;;25.30;59.50;;;;;;5052366;28;20386;-64
2022/07/21 12:17:09;;;;;;;3.58;3.28;;;25.20;59.50;;;;;;5051434;28;20663;-64
2022/07/21 12:19:34;;;;;;;3.17;2.92;;;25.20;59.60;;;;;;5052359;28;20175;-64
2022/07/21 12:22:00;;;;;;;5.05;3.60;;;25.20;59.60;;;;;;5051017;28;20541;-64
2022/07/21 12:24:49;;;;;;;4.47;3.33;;;25.20;59.60;;;;;;5048487;28;20240;-64
2022/07/21 12:27:15;;;;;;;4.15;3.00;;;25.20;59.70;;;;;;5051222;28;20195;-64
2022/07/21 12:29:41;;;;;;;3.08;2.88;;;25.20;59.70;;;;;;5050387;28;20183;-64
2022/07/21 12:32:06;;;;;;;3.38;3.10;;;25.20;59.80;;;;;;5051744;28;20171;-62
2022/07/21 12:34:32;;;;;;;3.70;3.40;;;25.20;59.70;;;;;;5051511;28;20171;-62
2022/07/21 12:36:58;;;;;;;2.97;2.67;;;25.20;59.80;;;;;;5049764;28;20176;-63
2022/07/21 12:42:32;;;;;;;2.85;2.50;;;25.30;59.80;;;;;;5049871;28;20565;-63
2022/07/21 12:44:58;;;;;;;3.08;2.78;;;25.30;59.70;;;;;;5050220;28;20206;-63